• pl
  • eng

Awiacja
Kliknij na pogrubioną czerwoną nazwę, aby odkodować depeszę. 05:01 20.10.2017
  • WIND
  • SIGNIFICANT EURO
  • SIGNIFICANT
  • SIGMET
  • AIRMET
  • TAF FC
  • TAF FT
  • METAR GG30
  • METAR GG00


METAR EPBY 200300Z 10006KT 6000 BKN005 OVC007 10/10 Q1017 =

METAR EPGD 200300Z 13010KT 7000 OVC003 09/09 Q1018 =

METAR EPKK 200300Z 19003KT 0400 R25/1900N FG SCT001 BKN002 08/08
Q1017 =

METAR EPKT 200300Z 05002KT 1200 0300NW R27/2000N BCFG BR NSC 03/03
Q1017 =

METAR EPLB 200300Z 04004KT 9999 OVC017 11/10 Q1018 =

METAR EPLL 200300Z 11003KT 070V140 0700 R25/1400D FG OVC002 11/11
Q1017 =

METAR EPMO 200300Z 10005KT 9999 OVC025 11/11 Q1018 =

METAR EPPO 200300Z 12007KT 0200 R28/0800 FG VV001 11/11 Q1016 =

METAR EPRA 200300Z NIL=

METAR EPRZ 200300Z VRB02KT 0150 R27/0550U FG VV001 10/10 Q1017 =

METAR EPSC 200300Z 13009KT 1700 BR OVC002 11/11 Q1014 =

METAR EPSY 200300Z NIL=

METAR EPWA 200300Z 21002KT 9999 BKN026 10/10 Q1018 TEMPO 3000 BR=

METAR EPWR 200300Z 15007KT 0150 R29/0450N FG VV000 10/10 Q1016 =

METAR EPZG 200300Z 11006KT 070V130 0050 R24/0225N FG OVC001 11/11
Q1015 =
Awiacja.imgw.pl jest pogodowym serwisem informacyjnym
Instytutu Meteorologii i Gospodarki Wodnej Państwowego Instytutu Badawczego.
Copyright IMGW PIB 2009-2011© Wszelkie prawa zastrzeżone.